createdAt,value
2023-03-21T00:01:33.377Z,22.40
2023-03-21T00:04:01.205Z,22.70
2023-03-21T00:06:29.169Z,24.00
2023-03-21T00:08:57.097Z,23.33
2023-03-21T00:11:25.622Z,21.77
2023-03-21T00:13:53.855Z,22.70
2023-03-21T00:16:30.327Z,23.58
2023-03-21T00:19:03.838Z,23.27
2023-03-21T00:21:48.777Z,23.67
2023-03-21T00:24:22.742Z,22.70
2023-03-21T00:26:52.058Z,23.13
2023-03-21T00:29:21.142Z,22.35
2023-03-21T00:31:49.171Z,22.08
2023-03-21T00:34:22.541Z,23.13
2023-03-21T00:37:02.118Z,21.77
2023-03-21T00:39:30.279Z,21.67
2023-03-21T00:41:58.410Z,22.70
2023-03-21T00:44:26.247Z,23.02
2023-03-21T00:47:06.521Z,23.52
2023-03-21T00:49:36.069Z,23.77
2023-03-21T00:52:38.107Z,23.17
2023-03-21T00:54:55.350Z,22.73
2023-03-21T00:57:37.592Z,22.70
2023-03-21T01:00:10.897Z,22.92
2023-03-21T01:02:43.476Z,22.30
2023-03-21T01:05:13.184Z,22.75
2023-03-21T01:07:40.984Z,21.95
2023-03-21T01:10:11.316Z,21.98
2023-03-21T01:12:39.285Z,22.65
2023-03-21T01:15:07.642Z,22.57
2023-03-21T01:17:35.768Z,22.27
2023-03-21T01:20:06.761Z,23.10
2023-03-21T01:22:34.576Z,23.98
2023-03-21T01:25:19.102Z,22.67
2023-03-21T01:27:50.740Z,22.23
2023-03-21T01:30:22.757Z,23.13
2023-03-21T01:32:52.581Z,22.05
2023-03-21T01:35:20.635Z,22.63
2023-03-21T01:37:49.453Z,23.05
2023-03-21T01:40:21.594Z,21.40
2023-03-21T01:42:51.877Z,22.00
2023-03-21T01:45:59.335Z,22.70
2023-03-21T01:48:45.472Z,22.25
2023-03-21T01:51:14.252Z,21.15
2023-03-21T01:53:56.579Z,22.60
2023-03-21T01:56:32.352Z,20.75
2023-03-21T01:59:21.978Z,22.10
2023-03-21T02:02:27.188Z,20.63
2023-03-21T02:05:28.522Z,21.20
2023-03-21T02:07:57.428Z,21.33
2023-03-21T02:10:28.282Z,22.13
2023-03-21T02:13:10.321Z,20.90
2023-03-21T02:15:49.526Z,21.55
2023-03-21T02:18:52.556Z,20.95
2023-03-21T02:21:50.989Z,21.37
2023-03-21T02:24:48.889Z,21.20
2023-03-21T02:27:25.351Z,19.40
2023-03-21T02:30:29.481Z,19.35
2023-03-21T02:33:05.883Z,17.58
2023-03-21T02:36:03.113Z,17.33
2023-03-21T02:38:43.973Z,16.83
2023-03-21T02:41:40.349Z,18.02
2023-03-21T02:44:24.920Z,17.38
2023-03-21T02:47:06.429Z,17.02
2023-03-21T02:49:59.239Z,17.60
2023-03-21T02:52:39.133Z,17.42
2023-03-21T02:55:20.343Z,17.92
2023-03-21T02:58:06.907Z,17.02
2023-03-21T03:00:45.357Z,17.05
2023-03-21T03:03:33.673Z,17.67
2023-03-21T03:06:20.082Z,17.52
2023-03-21T03:09:04.900Z,16.90
2023-03-21T03:11:46.684Z,18.15
2023-03-21T03:15:00.359Z,17.65
2023-03-21T03:17:45.196Z,17.20
2023-03-21T03:20:40.010Z,17.38
2023-03-21T03:23:35.942Z,18.15
2023-03-21T03:26:27.751Z,17.25
2023-03-21T03:29:07.445Z,16.90
2023-03-21T03:31:42.369Z,17.33
2023-03-21T03:34:21.411Z,17.80
2023-03-21T03:36:56.843Z,19.65
2023-03-21T03:39:36.668Z,17.73
2023-03-21T03:42:28.034Z,18.13
2023-03-21T03:45:07.267Z,19.17
2023-03-21T03:48:04.715Z,19.70
2023-03-21T03:50:44.899Z,18.48
2023-03-21T03:53:37.618Z,19.00
2023-03-21T03:56:08.595Z,19.45
2023-03-21T03:58:45.693Z,20.93
2023-03-21T04:01:18.426Z,22.10
2023-03-21T04:04:03.597Z,22.80
2023-03-21T04:06:38.967Z,22.60
2023-03-21T04:09:20.477Z,22.55
2023-03-21T04:11:51.968Z,21.13
2023-03-21T04:14:22.241Z,23.13
2023-03-21T04:16:52.891Z,23.15
2023-03-21T04:19:22.075Z,22.17
2023-03-21T04:21:51.130Z,21.90
2023-03-21T04:24:21.027Z,22.30
2023-03-21T04:26:54.886Z,21.02
2023-03-21T04:29:45.038Z,22.00
2023-03-21T04:32:28.921Z,20.35
2023-03-21T04:35:12.603Z,20.63
2023-03-21T04:37:42.894Z,20.70
2023-03-21T04:40:18.577Z,20.80
2023-03-21T04:42:49.427Z,21.15
2023-03-21T04:45:19.373Z,20.35
2023-03-21T04:47:48.690Z,22.52
2023-03-21T04:50:17.504Z,22.80
2023-03-21T04:52:45.824Z,23.67
2023-03-21T04:55:15.718Z,24.60
2023-03-21T04:57:47.740Z,25.98
2023-03-21T05:00:18.046Z,25.70
2023-03-21T05:02:47.562Z,25.17
2023-03-21T05:05:16.005Z,25.90
2023-03-21T05:07:44.526Z,24.58
2023-03-21T05:10:15.160Z,25.38
2023-03-21T05:12:43.733Z,26.40
2023-03-21T05:15:13.046Z,26.60
2023-03-21T05:17:43.230Z,25.75
2023-03-21T05:20:11.992Z,26.92
2023-03-21T05:22:41.555Z,26.45
2023-03-21T05:25:14.098Z,25.67
2023-03-21T05:28:02.686Z,25.80
2023-03-21T05:30:33.436Z,25.45
2023-03-21T05:33:03.241Z,25.13
2023-03-21T05:35:32.005Z,24.13
2023-03-21T05:38:06.237Z,23.63
2023-03-21T05:40:49.804Z,20.93
2023-03-21T05:43:19.029Z,21.13
2023-03-21T05:45:48.824Z,20.05
2023-03-21T05:48:19.347Z,18.95
2023-03-21T05:51:04.124Z,17.35
2023-03-21T05:53:32.658Z,16.23
2023-03-21T05:56:00.929Z,16.05
2023-03-21T05:58:45.955Z,15.68
2023-03-21T06:01:14.603Z,14.70
2023-03-21T06:03:47.858Z,14.38
2023-03-21T06:06:23.435Z,13.77
2023-03-21T06:08:56.840Z,13.45
2023-03-21T06:11:29.433Z,12.48
2023-03-21T06:14:18.330Z,13.40
2023-03-21T06:16:53.217Z,12.95
2023-03-21T06:19:22.586Z,13.30
2023-03-21T06:22:08.164Z,13.07
2023-03-21T06:24:39.997Z,13.25
2023-03-21T06:27:11.481Z,13.32
2023-03-21T06:29:50.845Z,14.10
2023-03-21T06:32:19.577Z,12.97
2023-03-21T06:34:49.874Z,12.23
2023-03-21T06:37:19.102Z,12.25
2023-03-21T06:39:47.550Z,12.20
2023-03-21T06:42:15.928Z,12.73
2023-03-21T06:44:47.594Z,11.43
2023-03-21T06:47:17.457Z,11.90
2023-03-21T06:49:47.471Z,11.82
2023-03-21T06:52:16.202Z,11.85
2023-03-21T06:54:44.404Z,12.65
2023-03-21T06:57:15.318Z,12.73
2023-03-21T06:59:43.638Z,13.93
2023-03-21T07:02:16.437Z,13.07
2023-03-21T07:05:08.937Z,13.30
2023-03-21T07:07:38.250Z,13.27
2023-03-21T07:10:07.584Z,12.73
2023-03-21T07:12:44.763Z,13.10
2023-03-21T07:15:24.979Z,12.75
2023-03-21T07:17:53.577Z,12.63
2023-03-21T07:20:21.553Z,14.43
2023-03-21T07:22:49.999Z,13.87
2023-03-21T07:25:18.768Z,13.50
2023-03-21T07:27:47.803Z,13.38
2023-03-21T07:30:16.989Z,12.77
2023-03-21T07:32:46.170Z,12.30
2023-03-21T07:35:16.539Z,10.30
2023-03-21T07:37:44.783Z,11.40
2023-03-21T07:40:16.631Z,11.88
2023-03-21T07:42:46.005Z,10.65
2023-03-21T07:45:21.612Z,10.15
2023-03-21T07:47:49.848Z,10.03
2023-03-21T07:50:18.528Z,9.80
2023-03-21T07:52:47.072Z,10.25
2023-03-21T07:55:14.953Z,9.40
2023-03-21T07:57:43.485Z,9.40
2023-03-21T08:00:13.107Z,9.27
2023-03-21T08:02:41.373Z,8.43
2023-03-21T08:05:11.865Z,8.38
2023-03-21T08:07:39.991Z,8.18
2023-03-21T08:10:09.078Z,7.95
2023-03-21T08:12:37.288Z,7.57
2023-03-21T08:15:08.952Z,7.93
2023-03-21T08:17:38.699Z,7.50
2023-03-21T08:20:09.401Z,7.55
2023-03-21T08:22:38.595Z,6.97
2023-03-21T08:25:08.518Z,6.80
2023-03-21T08:27:36.771Z,6.25
2023-03-21T08:30:05.658Z,6.13
2023-03-21T08:32:34.246Z,5.93
2023-03-21T08:35:02.896Z,5.90
2023-03-21T08:37:31.597Z,5.73
2023-03-21T08:39:59.593Z,5.75
2023-03-21T08:42:27.608Z,6.38
2023-03-21T08:44:55.689Z,6.40
2023-03-21T08:47:23.681Z,5.32
2023-03-21T08:49:51.865Z,5.57
2023-03-21T08:52:19.888Z,6.10
2023-03-21T08:54:49.102Z,5.47
2023-03-21T08:57:17.392Z,6.68
2023-03-21T08:59:45.412Z,5.20
2023-03-21T09:02:18.095Z,3.90
2023-03-21T09:04:46.464Z,4.10
2023-03-21T09:07:15.535Z,4.25
2023-03-21T09:09:45.937Z,4.30
2023-03-21T09:12:16.585Z,4.90
2023-03-21T09:14:44.528Z,4.10
2023-03-21T09:17:12.499Z,4.43
2023-03-21T09:19:42.067Z,3.70
2023-03-21T09:22:17.789Z,4.60
2023-03-21T09:24:48.112Z,4.07
2023-03-21T09:27:18.705Z,3.13
2023-03-21T09:29:47.290Z,3.70
2023-03-21T09:32:15.772Z,3.63
2023-03-21T09:34:45.197Z,4.45
2023-03-21T09:37:16.291Z,4.40
2023-03-21T09:39:45.579Z,3.73
2023-03-21T09:42:32.125Z,4.35
2023-03-21T09:45:09.713Z,3.72
2023-03-21T09:47:54.003Z,3.60
2023-03-21T09:50:43.101Z,3.30
2023-03-21T09:53:24.856Z,4.03
2023-03-21T09:55:54.893Z,3.30
2023-03-21T09:58:34.862Z,3.90
2023-03-21T10:01:42.051Z,4.15
2023-03-21T10:04:17.071Z,4.40
2023-03-21T10:06:52.666Z,3.93
2023-03-21T10:09:24.962Z,4.60
2023-03-21T10:12:12.258Z,4.50
2023-03-21T10:14:44.731Z,4.30
2023-03-21T10:17:21.945Z,4.70
2023-03-21T10:20:18.462Z,4.50
2023-03-21T10:22:48.324Z,4.68
2023-03-21T10:25:20.072Z,5.25
2023-03-21T10:27:49.288Z,5.22
2023-03-21T10:30:28.848Z,4.55
2023-03-21T10:33:06.186Z,4.53
2023-03-21T10:35:37.734Z,4.93
2023-03-21T10:38:08.115Z,5.28
2023-03-21T10:40:36.128Z,5.80
2023-03-21T10:43:20.340Z,6.50
2023-03-21T10:45:49.593Z,5.97
2023-03-21T10:48:17.531Z,5.70
2023-03-21T10:50:51.182Z,5.63
2023-03-21T10:53:36.055Z,5.38
2023-03-21T10:56:09.770Z,5.00
2023-03-21T10:58:43.911Z,4.97
2023-03-21T11:01:16.382Z,5.05
2023-03-21T11:04:07.970Z,5.22
2023-03-21T11:06:40.695Z,4.95
2023-03-21T11:09:22.018Z,4.78
2023-03-21T11:11:53.220Z,4.40
2023-03-21T11:14:48.398Z,3.60
2023-03-21T11:17:19.569Z,3.95
2023-03-21T11:20:00.597Z,3.55
2023-03-21T11:22:42.932Z,3.53
2023-03-21T11:25:30.908Z,3.27
2023-03-21T11:27:59.838Z,3.60
2023-03-21T11:30:28.920Z,3.70
2023-03-21T11:33:06.742Z,3.95
2023-03-21T11:35:39.772Z,3.72
2023-03-21T11:38:23.711Z,3.60
2023-03-21T11:40:58.793Z,3.70
2023-03-21T11:43:30.328Z,3.70
2023-03-21T11:46:06.110Z,3.40
2023-03-21T11:48:49.292Z,3.70
2023-03-21T11:51:32.359Z,3.20
2023-03-21T11:54:14.921Z,3.20
2023-03-21T11:56:54.431Z,3.05
2023-03-21T11:59:48.987Z,3.72
2023-03-21T12:02:34.212Z,3.40
2023-03-21T12:05:17.237Z,3.30
2023-03-21T12:08:05.856Z,3.42
2023-03-21T12:10:54.266Z,3.50
2023-03-21T12:13:52.696Z,3.55
2023-03-21T12:16:33.985Z,3.30
2023-03-21T12:19:33.052Z,3.60
2023-03-21T12:22:18.112Z,3.17
2023-03-21T12:25:01.742Z,3.70
2023-03-21T12:27:38.918Z,3.10
2023-03-21T12:30:43.124Z,3.30
2023-03-21T12:33:27.609Z,3.40
2023-03-21T12:36:00.920Z,3.25
2023-03-21T12:38:51.959Z,3.65
2023-03-21T12:41:54.971Z,3.30
2023-03-21T12:44:26.761Z,3.57
2023-03-21T12:46:57.498Z,3.60
2023-03-21T12:49:34.851Z,3.90
2023-03-21T12:52:08.291Z,3.78
2023-03-21T12:54:43.399Z,3.97
2023-03-21T12:57:40.156Z,3.70
2023-03-21T13:00:34.987Z,4.22
2023-03-21T13:03:04.636Z,3.75
2023-03-21T13:05:48.850Z,3.60
2023-03-21T13:08:52.306Z,4.00
2023-03-21T13:11:24.125Z,3.73
2023-03-21T13:13:57.364Z,4.70
2023-03-21T13:16:33.726Z,5.10
2023-03-21T13:19:16.280Z,5.57
2023-03-21T13:22:14.573Z,5.45
2023-03-21T13:24:49.749Z,5.40
2023-03-21T13:27:29.122Z,10.18
2023-03-21T13:30:09.038Z,8.73
2023-03-21T13:32:40.990Z,7.50
2023-03-21T13:35:46.629Z,8.52
2023-03-21T13:38:28.512Z,8.00
2023-03-21T13:41:37.538Z,22.42
2023-03-21T13:44:05.471Z,6.72
2023-03-21T13:46:53.895Z,18.80
2023-03-21T13:49:38.636Z,16.52
2023-03-21T13:52:12.466Z,15.93
2023-03-21T13:54:57.492Z,14.45
2023-03-21T13:57:29.767Z,12.05
2023-03-21T14:00:30.864Z,16.60
2023-03-21T14:03:08.997Z,10.23
2023-03-21T14:05:39.569Z,21.47
2023-03-21T14:08:15.733Z,10.18
2023-03-21T14:10:57.538Z,15.73
2023-03-21T14:13:28.555Z,13.15
2023-03-21T14:16:13.178Z,9.80
2023-03-21T14:19:07.319Z,12.80
2023-03-21T14:21:36.465Z,12.57
2023-03-21T14:24:04.280Z,8.48
2023-03-21T14:26:40.752Z,9.43
2023-03-21T14:29:25.114Z,13.77
2023-03-21T14:31:55.989Z,9.17
2023-03-21T14:34:27.506Z,9.32
2023-03-21T14:36:58.634Z,13.15
2023-03-21T14:39:33.544Z,9.85
2023-03-21T14:42:12.308Z,14.20
2023-03-21T14:44:57.867Z,7.97
2023-03-21T14:47:29.316Z,5.93
2023-03-21T14:49:58.624Z,6.57
2023-03-21T14:52:34.565Z,6.30
2023-03-21T14:55:06.663Z,5.70
2023-03-21T14:57:34.668Z,6.30
2023-03-21T15:00:12.709Z,6.45
2023-03-21T15:02:43.509Z,13.05
2023-03-21T15:05:21.047Z,9.85
2023-03-21T15:08:13.386Z,12.85
2023-03-21T15:10:42.491Z,12.93
2023-03-21T15:13:20.189Z,14.68
2023-03-21T15:15:48.784Z,15.10
2023-03-21T15:18:23.806Z,14.27
2023-03-21T15:20:53.367Z,19.55
2023-03-21T15:23:28.841Z,22.43
2023-03-21T15:25:56.982Z,23.75
2023-03-21T15:28:26.739Z,14.02
2023-03-21T15:30:57.111Z,15.52
2023-03-21T15:33:26.454Z,17.65
2023-03-21T15:36:00.271Z,17.27
2023-03-21T15:38:37.588Z,16.60
2023-03-21T15:41:20.744Z,17.77
2023-03-21T15:44:10.513Z,15.63
2023-03-21T15:46:45.609Z,19.27
2023-03-21T15:49:16.578Z,16.30
2023-03-21T15:51:53.191Z,16.08
2023-03-21T15:54:31.496Z,17.13
2023-03-21T15:57:10.028Z,15.40
2023-03-21T15:59:42.171Z,17.38
2023-03-21T16:02:22.742Z,14.80
2023-03-21T16:05:23.186Z,13.75
2023-03-21T16:07:51.461Z,11.32
2023-03-21T16:10:31.934Z,11.80
2023-03-21T16:13:01.356Z,10.00
2023-03-21T16:15:29.647Z,10.17
2023-03-21T16:18:00.210Z,9.90
2023-03-21T16:20:33.198Z,9.73
2023-03-21T16:23:01.814Z,10.15
2023-03-21T16:25:31.148Z,10.38
2023-03-21T16:27:59.666Z,9.57
2023-03-21T16:30:27.993Z,10.25
2023-03-21T16:32:57.030Z,9.98
2023-03-21T16:35:26.778Z,9.20
2023-03-21T16:37:54.789Z,9.77
2023-03-21T16:40:41.476Z,9.20
2023-03-21T16:43:10.011Z,8.55
2023-03-21T16:45:38.478Z,9.95
2023-03-21T16:48:09.229Z,10.38
2023-03-21T16:50:42.756Z,9.63
2023-03-21T16:53:10.858Z,9.70
2023-03-21T16:55:39.267Z,9.52
2023-03-21T16:58:07.349Z,9.43
2023-03-21T17:00:35.607Z,9.80
2023-03-21T17:03:14.172Z,9.75
2023-03-21T17:05:42.261Z,9.57
2023-03-21T17:08:19.089Z,10.27
2023-03-21T17:10:47.672Z,10.10
2023-03-21T17:13:15.641Z,11.32
2023-03-21T17:15:43.845Z,11.05
2023-03-21T17:18:12.557Z,10.20
2023-03-21T17:20:42.016Z,10.93
2023-03-21T17:23:10.782Z,11.13
2023-03-21T17:25:38.756Z,11.57
2023-03-21T17:28:06.737Z,12.00
2023-03-21T17:30:39.575Z,12.43
2023-03-21T17:33:07.982Z,12.85
2023-03-21T17:35:35.810Z,14.65
2023-03-21T17:38:04.507Z,18.75
2023-03-21T17:40:33.340Z,23.17
2023-03-21T17:43:01.937Z,20.60
2023-03-21T17:45:30.221Z,20.42
2023-03-21T17:47:58.308Z,30.13
2023-03-21T17:50:34.677Z,28.65
2023-03-21T17:53:02.768Z,33.88
2023-03-21T17:55:31.012Z,33.90
2023-03-21T17:57:58.903Z,21.45
2023-03-21T18:00:29.596Z,16.25
2023-03-21T18:02:58.450Z,15.98
2023-03-21T18:05:27.867Z,19.10
2023-03-21T18:08:10.937Z,19.80
2023-03-21T18:10:40.892Z,20.33
2023-03-21T18:13:09.437Z,20.05
2023-03-21T18:15:38.268Z,18.70
2023-03-21T18:18:07.014Z,15.93
2023-03-21T18:20:53.057Z,16.20
2023-03-21T18:23:22.397Z,15.93
2023-03-21T18:25:53.017Z,16.88
2023-03-21T18:28:22.220Z,20.33
2023-03-21T18:33:41.345Z,15.87
2023-03-21T18:36:10.543Z,17.02
2023-03-21T18:38:39.465Z,18.10
2023-03-21T18:41:09.175Z,18.88
2023-03-21T18:44:01.713Z,18.98
2023-03-21T18:46:26.941Z,17.70
2023-03-21T18:48:55.565Z,18.45
2023-03-21T18:51:23.999Z,17.77
2023-03-21T18:53:52.002Z,19.23
2023-03-21T18:57:13.260Z,21.63
2023-03-21T18:59:08.991Z,26.67
2023-03-21T19:01:36.928Z,27.17
2023-03-21T19:04:22.900Z,22.88
2023-03-21T19:06:53.607Z,20.13
2023-03-21T19:09:29.371Z,19.02
2023-03-21T19:12:00.251Z,21.10
2023-03-21T19:14:28.654Z,21.20
2023-03-21T19:17:50.804Z,22.23
2023-03-21T19:19:48.366Z,21.08
2023-03-21T19:22:17.011Z,21.23
2023-03-21T19:24:44.957Z,20.27
2023-03-21T19:27:13.762Z,20.77
2023-03-21T19:29:42.568Z,20.05
2023-03-21T19:32:10.406Z,21.00
2023-03-21T19:34:38.646Z,21.80
2023-03-21T19:37:06.701Z,22.00
2023-03-21T19:39:34.770Z,22.58
2023-03-21T19:42:15.547Z,22.88
2023-03-21T19:44:44.854Z,22.60
2023-03-21T19:47:12.878Z,33.60
2023-03-21T19:50:37.485Z,39.07
2023-03-21T19:52:29.740Z,31.45
2023-03-21T19:55:05.350Z,26.38
2023-03-21T19:57:34.912Z,24.75
2023-03-21T20:00:03.254Z,27.55
2023-03-21T20:02:35.975Z,34.40
2023-03-21T20:05:07.120Z,28.08
2023-03-21T20:07:35.285Z,26.48
2023-03-21T20:10:03.254Z,23.35
2023-03-21T20:12:33.056Z,21.42
2023-03-21T20:15:15.756Z,23.97
2023-03-21T20:17:46.019Z,22.45
2023-03-21T20:20:17.541Z,20.92
2023-03-21T20:25:40.991Z,25.77
2023-03-21T20:28:24.619Z,22.13
2023-03-21T20:31:01.156Z,19.25
2023-03-21T20:33:29.951Z,19.10
2023-03-21T20:38:54.210Z,17.85
2023-03-21T20:41:22.448Z,17.47
2023-03-21T20:46:38.709Z,18.10
2023-03-21T20:49:09.112Z,16.40
2023-03-21T20:54:25.473Z,16.73
2023-03-21T20:56:53.456Z,17.33
2023-03-21T20:59:27.162Z,15.68
2023-03-21T21:01:58.320Z,14.68
2023-03-21T21:04:52.828Z,15.57
2023-03-21T21:07:21.858Z,17.30
2023-03-21T21:09:50.628Z,16.77
2023-03-21T21:12:23.530Z,15.52
2023-03-21T21:14:51.767Z,14.43
2023-03-21T21:17:37.128Z,14.30
2023-03-21T21:20:17.242Z,13.43
2023-03-21T21:23:00.168Z,13.02
2023-03-21T21:25:32.159Z,12.20
2023-03-21T21:28:02.184Z,10.55
2023-03-21T21:30:34.374Z,10.77
2023-03-21T21:33:02.609Z,11.00
2023-03-21T21:35:30.606Z,10.55
2023-03-21T21:37:58.695Z,10.60
2023-03-21T21:40:26.436Z,10.77
2023-03-21T21:42:54.670Z,10.05
2023-03-21T21:45:22.852Z,10.40
2023-03-21T21:47:51.334Z,10.45
2023-03-21T21:50:22.037Z,10.85
2023-03-21T21:52:53.110Z,10.48
2023-03-21T21:55:21.707Z,11.75
2023-03-21T21:57:51.076Z,12.27
2023-03-21T22:00:22.312Z,12.38
2023-03-21T22:02:50.908Z,12.90
2023-03-21T22:05:21.336Z,13.48
2023-03-21T22:07:52.885Z,13.18
2023-03-21T22:10:22.541Z,12.63
2023-03-21T22:12:50.637Z,12.13
2023-03-21T22:15:19.680Z,12.10
2023-03-21T22:17:47.598Z,12.32
2023-03-21T22:20:17.448Z,11.52
2023-03-21T22:22:46.275Z,10.93
2023-03-21T22:25:16.681Z,11.48
2023-03-21T22:27:44.844Z,11.23
2023-03-21T22:30:14.651Z,10.73
2023-03-21T22:32:42.765Z,10.50
2023-03-21T22:35:11.467Z,9.97
2023-03-21T22:37:42.135Z,9.50
2023-03-21T22:40:14.111Z,10.00
2023-03-21T22:42:43.364Z,11.93
2023-03-21T22:45:14.107Z,14.68
2023-03-21T22:47:42.213Z,13.13
2023-03-21T22:50:10.493Z,12.60
2023-03-21T22:52:38.575Z,13.80
2023-03-21T22:55:07.349Z,16.02
2023-03-21T22:57:35.556Z,13.75
2023-03-21T23:00:05.193Z,12.40
2023-03-21T23:02:33.455Z,11.63
2023-03-21T23:05:01.327Z,11.77
2023-03-21T23:07:29.377Z,12.18
2023-03-21T23:09:57.691Z,12.52
2023-03-21T23:12:25.767Z,12.60
2023-03-21T23:14:53.780Z,13.18
2023-03-21T23:17:21.762Z,12.20
2023-03-21T23:19:49.638Z,12.05
2023-03-21T23:22:17.557Z,11.73
2023-03-21T23:24:45.731Z,11.33
2023-03-21T23:27:14.746Z,12.88
2023-03-21T23:29:44.491Z,12.20
2023-03-21T23:32:12.458Z,12.15
2023-03-21T23:34:40.371Z,12.52
2023-03-21T23:37:08.771Z,12.83
2023-03-21T23:39:36.562Z,12.50
2023-03-21T23:42:04.547Z,13.57
2023-03-21T23:44:33.018Z,12.70
2023-03-21T23:47:01.476Z,12.95
2023-03-21T23:49:38.175Z,12.30
2023-03-21T23:52:06.808Z,13.05
2023-03-21T23:54:34.722Z,12.95
2023-03-21T23:57:02.876Z,13.80
2023-03-21T23:59:30.951Z,10.75
